sensor_id;sensor_type;location;lat;lon;timestamp;P1;durP1;ratioP1;P2;durP2;ratioP2
52268;SDS011;38224;50.950;4.100;2023-05-29T00:00:01;20.52;;;9.90;;
52268;SDS011;38224;50.950;4.100;2023-05-29T00:02:30;18.70;;;9.68;;
52268;SDS011;38224;50.950;4.100;2023-05-29T00:04:55;21.33;;;10.83;;
52268;SDS011;38224;50.950;4.100;2023-05-29T00:07:20;20.90;;;10.47;;
52268;SDS011;38224;50.950;4.100;2023-05-29T00:09:46;18.23;;;9.20;;
52268;SDS011;38224;50.950;4.100;2023-05-29T00:12:11;23.92;;;9.60;;
52268;SDS011;38224;50.950;4.100;2023-05-29T00:14:36;16.35;;;8.60;;
52268;SDS011;38224;50.950;4.100;2023-05-29T00:17:02;18.83;;;10.53;;
52268;SDS011;38224;50.950;4.100;2023-05-29T00:19:28;19.02;;;9.75;;
52268;SDS011;38224;50.950;4.100;2023-05-29T00:21:53;20.75;;;9.48;;
52268;SDS011;38224;50.950;4.100;2023-05-29T00:24:18;24.70;;;9.43;;
52268;SDS011;38224;50.950;4.100;2023-05-29T00:26:45;21.63;;;10.10;;
52268;SDS011;38224;50.950;4.100;2023-05-29T00:29:10;26.27;;;9.75;;
52268;SDS011;38224;50.950;4.100;2023-05-29T00:31:36;19.17;;;9.87;;
52268;SDS011;38224;50.950;4.100;2023-05-29T00:34:01;26.02;;;9.18;;
52268;SDS011;38224;50.950;4.100;2023-05-29T00:36:27;20.90;;;9.90;;
52268;SDS011;38224;50.950;4.100;2023-05-29T00:38:53;18.00;;;9.48;;
52268;SDS011;38224;50.950;4.100;2023-05-29T00:41:19;16.93;;;9.63;;
52268;SDS011;38224;50.950;4.100;2023-05-29T00:43:44;20.27;;;10.07;;
52268;SDS011;38224;50.950;4.100;2023-05-29T00:46:09;22.63;;;9.45;;
52268;SDS011;38224;50.950;4.100;2023-05-29T00:48:36;19.40;;;9.10;;
52268;SDS011;38224;50.950;4.100;2023-05-29T00:51:02;26.20;;;9.93;;
52268;SDS011;38224;50.950;4.100;2023-05-29T00:53:27;19.77;;;9.77;;
52268;SDS011;38224;50.950;4.100;2023-05-29T00:55:53;23.40;;;9.70;;
52268;SDS011;38224;50.950;4.100;2023-05-29T00:58:19;19.83;;;9.65;;
52268;SDS011;38224;50.950;4.100;2023-05-29T01:00:45;21.55;;;9.52;;
52268;SDS011;38224;50.950;4.100;2023-05-29T01:03:10;20.47;;;8.70;;
52268;SDS011;38224;50.950;4.100;2023-05-29T01:05:39;17.13;;;9.50;;
52268;SDS011;38224;50.950;4.100;2023-05-29T01:08:05;20.25;;;9.60;;
52268;SDS011;38224;50.950;4.100;2023-05-29T01:10:31;21.52;;;10.75;;
52268;SDS011;38224;50.950;4.100;2023-05-29T01:13:03;18.20;;;8.38;;
52268;SDS011;38224;50.950;4.100;2023-05-29T01:15:33;26.38;;;9.85;;
52268;SDS011;38224;50.950;4.100;2023-05-29T01:28:27;22.42;;;9.30;;
52268;SDS011;38224;50.950;4.100;2023-05-29T01:30:54;13.77;;;8.23;;
52268;SDS011;38224;50.950;4.100;2023-05-29T01:33:19;16.23;;;9.88;;
52268;SDS011;38224;50.950;4.100;2023-05-29T01:35:45;22.50;;;9.60;;
52268;SDS011;38224;50.950;4.100;2023-05-29T01:38:10;23.35;;;8.75;;
52268;SDS011;38224;50.950;4.100;2023-05-29T01:40:35;20.10;;;8.05;;
52268;SDS011;38224;50.950;4.100;2023-05-29T01:43:01;16.05;;;9.25;;
52268;SDS011;38224;50.950;4.100;2023-05-29T01:45:26;18.95;;;8.27;;
52268;SDS011;38224;50.950;4.100;2023-05-29T01:47:52;14.05;;;7.35;;
52268;SDS011;38224;50.950;4.100;2023-05-29T01:50:17;20.98;;;7.95;;
52268;SDS011;38224;50.950;4.100;2023-05-29T01:52:43;21.80;;;9.18;;
52268;SDS011;38224;50.950;4.100;2023-05-29T01:55:09;22.60;;;7.40;;
52268;SDS011;38224;50.950;4.100;2023-05-29T01:57:34;21.05;;;8.82;;
52268;SDS011;38224;50.950;4.100;2023-05-29T02:00:00;14.68;;;6.65;;
52268;SDS011;38224;50.950;4.100;2023-05-29T02:02:26;17.10;;;7.70;;
52268;SDS011;38224;50.950;4.100;2023-05-29T02:04:51;22.85;;;7.85;;
52268;SDS011;38224;50.950;4.100;2023-05-29T02:07:17;27.48;;;7.82;;
52268;SDS011;38224;50.950;4.100;2023-05-29T02:09:42;20.27;;;8.38;;
52268;SDS011;38224;50.950;4.100;2023-05-29T02:12:07;19.20;;;7.33;;
52268;SDS011;38224;50.950;4.100;2023-05-29T02:14:33;20.65;;;6.38;;
52268;SDS011;38224;50.950;4.100;2023-05-29T02:16:58;14.32;;;6.70;;
52268;SDS011;38224;50.950;4.100;2023-05-29T02:19:23;27.23;;;7.05;;
52268;SDS011;38224;50.950;4.100;2023-05-29T02:21:50;21.60;;;7.45;;
52268;SDS011;38224;50.950;4.100;2023-05-29T02:24:15;15.57;;;6.43;;
52268;SDS011;38224;50.950;4.100;2023-05-29T02:26:41;14.70;;;6.28;;
52268;SDS011;38224;50.950;4.100;2023-05-29T02:29:07;16.13;;;5.78;;
52268;SDS011;38224;50.950;4.100;2023-05-29T02:31:32;18.40;;;5.13;;
52268;SDS011;38224;50.950;4.100;2023-05-29T02:33:58;15.38;;;5.80;;
52268;SDS011;38224;50.950;4.100;2023-05-29T02:36:23;19.08;;;5.78;;
52268;SDS011;38224;50.950;4.100;2023-05-29T02:38:48;18.37;;;5.50;;
52268;SDS011;38224;50.950;4.100;2023-05-29T02:41:14;15.13;;;5.22;;
52268;SDS011;38224;50.950;4.100;2023-05-29T02:43:39;13.35;;;4.80;;
52268;SDS011;38224;50.950;4.100;2023-05-29T02:46:04;20.75;;;5.07;;
52268;SDS011;38224;50.950;4.100;2023-05-29T02:48:30;15.53;;;4.33;;
52268;SDS011;38224;50.950;4.100;2023-05-29T02:50:55;21.67;;;4.88;;
52268;SDS011;38224;50.950;4.100;2023-05-29T02:53:21;21.60;;;4.82;;
52268;SDS011;38224;50.950;4.100;2023-05-29T02:55:46;16.83;;;4.13;;
52268;SDS011;38224;50.950;4.100;2023-05-29T02:58:12;18.35;;;4.13;;
52268;SDS011;38224;50.950;4.100;2023-05-29T03:00:37;15.90;;;4.20;;
52268;SDS011;38224;50.950;4.100;2023-05-29T03:03:02;19.38;;;4.45;;
52268;SDS011;38224;50.950;4.100;2023-05-29T03:05:28;15.45;;;4.00;;
52268;SDS011;38224;50.950;4.100;2023-05-29T03:07:53;15.88;;;3.72;;
52268;SDS011;38224;50.950;4.100;2023-05-29T03:10:18;12.45;;;3.42;;
52268;SDS011;38224;50.950;4.100;2023-05-29T03:12:44;16.93;;;4.23;;
52268;SDS011;38224;50.950;4.100;2023-05-29T03:15:09;13.40;;;3.15;;
52268;SDS011;38224;50.950;4.100;2023-05-29T03:17:35;15.98;;;5.10;;
52268;SDS011;38224;50.950;4.100;2023-05-29T03:20:03;17.77;;;3.63;;
52268;SDS011;38224;50.950;4.100;2023-05-29T03:22:31;17.05;;;3.83;;
52268;SDS011;38224;50.950;4.100;2023-05-29T03:24:56;21.98;;;3.70;;
52268;SDS011;38224;50.950;4.100;2023-05-29T03:27:21;17.87;;;3.80;;
52268;SDS011;38224;50.950;4.100;2023-05-29T03:29:46;18.20;;;3.67;;
52268;SDS011;38224;50.950;4.100;2023-05-29T03:32:11;19.70;;;4.03;;
52268;SDS011;38224;50.950;4.100;2023-05-29T03:34:37;15.52;;;3.75;;
52268;SDS011;38224;50.950;4.100;2023-05-29T03:37:02;12.10;;;3.38;;
52268;SDS011;38224;50.950;4.100;2023-05-29T03:39:28;11.63;;;3.45;;
52268;SDS011;38224;50.950;4.100;2023-05-29T03:41:53;18.30;;;4.03;;
52268;SDS011;38224;50.950;4.100;2023-05-29T03:44:18;15.63;;;4.35;;
52268;SDS011;38224;50.950;4.100;2023-05-29T03:46:44;15.50;;;3.83;;
52268;SDS011;38224;50.950;4.100;2023-05-29T03:49:09;21.00;;;4.00;;
52268;SDS011;38224;50.950;4.100;2023-05-29T03:51:34;18.65;;;3.50;;
52268;SDS011;38224;50.950;4.100;2023-05-29T03:54:01;14.73;;;3.72;;
52268;SDS011;38224;50.950;4.100;2023-05-29T03:56:26;13.13;;;3.47;;
52268;SDS011;38224;50.950;4.100;2023-05-29T03:58:51;10.80;;;3.28;;
52268;SDS011;38224;50.950;4.100;2023-05-29T04:01:17;14.75;;;3.00;;
52268;SDS011;38224;50.950;4.100;2023-05-29T04:03:42;16.90;;;3.95;;
52268;SDS011;38224;50.950;4.100;2023-05-29T04:06:09;17.70;;;3.58;;
52268;SDS011;38224;50.950;4.100;2023-05-29T04:08:34;13.88;;;3.33;;
52268;SDS011;38224;50.950;4.100;2023-05-29T04:10:59;14.32;;;3.70;;
52268;SDS011;38224;50.950;4.100;2023-05-29T04:13:24;12.65;;;3.33;;
52268;SDS011;38224;50.950;4.100;2023-05-29T04:15:50;15.83;;;3.87;;
52268;SDS011;38224;50.950;4.100;2023-05-29T04:18:18;22.52;;;5.05;;
52268;SDS011;38224;50.950;4.100;2023-05-29T04:20:44;18.95;;;3.28;;
52268;SDS011;38224;50.950;4.100;2023-05-29T04:23:12;20.02;;;3.33;;
52268;SDS011;38224;50.950;4.100;2023-05-29T04:25:37;14.27;;;3.20;;
52268;SDS011;38224;50.950;4.100;2023-05-29T04:28:02;15.90;;;2.90;;
52268;SDS011;38224;50.950;4.100;2023-05-29T04:30:28;15.30;;;4.57;;
52268;SDS011;38224;50.950;4.100;2023-05-29T04:32:54;11.00;;;3.35;;
52268;SDS011;38224;50.950;4.100;2023-05-29T04:35:19;17.15;;;3.53;;
52268;SDS011;38224;50.950;4.100;2023-05-29T04:37:46;16.23;;;3.65;;
52268;SDS011;38224;50.950;4.100;2023-05-29T04:40:12;17.80;;;3.80;;
52268;SDS011;38224;50.950;4.100;2023-05-29T04:42:39;17.02;;;4.43;;
52268;SDS011;38224;50.950;4.100;2023-05-29T04:45:07;12.95;;;3.80;;
52268;SDS011;38224;50.950;4.100;2023-05-29T04:47:33;14.02;;;3.17;;
52268;SDS011;38224;50.950;4.100;2023-05-29T04:49:59;11.93;;;3.03;;
52268;SDS011;38224;50.950;4.100;2023-05-29T04:52:24;17.02;;;3.50;;
52268;SDS011;38224;50.950;4.100;2023-05-29T04:54:49;14.70;;;3.03;;
52268;SDS011;38224;50.950;4.100;2023-05-29T04:57:15;17.75;;;3.00;;
52268;SDS011;38224;50.950;4.100;2023-05-29T04:59:41;15.02;;;3.25;;
52268;SDS011;38224;50.950;4.100;2023-05-29T05:02:06;11.50;;;3.00;;
52268;SDS011;38224;50.950;4.100;2023-05-29T05:04:32;13.73;;;3.70;;
52268;SDS011;38224;50.950;4.100;2023-05-29T05:06:57;17.50;;;3.13;;
52268;SDS011;38224;50.950;4.100;2023-05-29T05:09:22;17.03;;;3.67;;
52268;SDS011;38224;50.950;4.100;2023-05-29T05:11:48;12.27;;;2.63;;
52268;SDS011;38224;50.950;4.100;2023-05-29T05:14:13;18.30;;;3.50;;
52268;SDS011;38224;50.950;4.100;2023-05-29T05:16:38;17.83;;;3.47;;
52268;SDS011;38224;50.950;4.100;2023-05-29T05:19:03;16.55;;;3.78;;
52268;SDS011;38224;50.950;4.100;2023-05-29T05:21:29;12.50;;;3.27;;
52268;SDS011;38224;50.950;4.100;2023-05-29T05:23:56;15.60;;;3.40;;
52268;SDS011;38224;50.950;4.100;2023-05-29T05:26:22;10.67;;;2.63;;
52268;SDS011;38224;50.950;4.100;2023-05-29T05:28:47;12.98;;;3.17;;
52268;SDS011;38224;50.950;4.100;2023-05-29T05:31:12;9.68;;;2.40;;
52268;SDS011;38224;50.950;4.100;2023-05-29T05:33:37;13.95;;;3.05;;
52268;SDS011;38224;50.950;4.100;2023-05-29T05:36:03;11.32;;;2.65;;
52268;SDS011;38224;50.950;4.100;2023-05-29T05:38:28;10.57;;;2.78;;
52268;SDS011;38224;50.950;4.100;2023-05-29T05:40:53;15.85;;;3.33;;
52268;SDS011;38224;50.950;4.100;2023-05-29T05:43:19;16.60;;;2.90;;
52268;SDS011;38224;50.950;4.100;2023-05-29T05:45:46;16.05;;;3.30;;
52268;SDS011;38224;50.950;4.100;2023-05-29T05:48:11;17.42;;;2.70;;
52268;SDS011;38224;50.950;4.100;2023-05-29T05:50:37;18.65;;;3.30;;
52268;SDS011;38224;50.950;4.100;2023-05-29T05:53:02;11.30;;;2.77;;
52268;SDS011;38224;50.950;4.100;2023-05-29T05:55:27;13.53;;;3.30;;
52268;SDS011;38224;50.950;4.100;2023-05-29T05:57:53;17.42;;;3.58;;
52268;SDS011;38224;50.950;4.100;2023-05-29T06:00:18;19.48;;;3.00;;
52268;SDS011;38224;50.950;4.100;2023-05-29T06:02:44;14.90;;;2.83;;
52268;SDS011;38224;50.950;4.100;2023-05-29T06:05:10;13.82;;;3.35;;
52268;SDS011;38224;50.950;4.100;2023-05-29T06:07:36;9.45;;;2.83;;
52268;SDS011;38224;50.950;4.100;2023-05-29T06:10:02;16.23;;;3.22;;
52268;SDS011;38224;50.950;4.100;2023-05-29T06:12:27;13.38;;;3.55;;
52268;SDS011;38224;50.950;4.100;2023-05-29T06:14:52;11.50;;;3.42;;
52268;SDS011;38224;50.950;4.100;2023-05-29T06:17:18;12.18;;;2.58;;
52268;SDS011;38224;50.950;4.100;2023-05-29T06:19:43;13.77;;;3.00;;
52268;SDS011;38224;50.950;4.100;2023-05-29T06:22:08;12.90;;;3.10;;
52268;SDS011;38224;50.950;4.100;2023-05-29T06:24:34;11.13;;;2.95;;
52268;SDS011;38224;50.950;4.100;2023-05-29T06:26:59;15.88;;;4.15;;
52268;SDS011;38224;50.950;4.100;2023-05-29T06:29:24;10.23;;;2.75;;
52268;SDS011;38224;50.950;4.100;2023-05-29T06:31:50;12.23;;;3.22;;
52268;SDS011;38224;50.950;4.100;2023-05-29T06:34:15;10.40;;;2.67;;
52268;SDS011;38224;50.950;4.100;2023-05-29T06:36:41;11.07;;;2.42;;
52268;SDS011;38224;50.950;4.100;2023-05-29T06:39:07;10.10;;;2.72;;
52268;SDS011;38224;50.950;4.100;2023-05-29T06:41:32;13.88;;;3.10;;
52268;SDS011;38224;50.950;4.100;2023-05-29T06:43:57;8.90;;;3.00;;
52268;SDS011;38224;50.950;4.100;2023-05-29T06:46:22;15.83;;;3.30;;
52268;SDS011;38224;50.950;4.100;2023-05-29T06:48:48;13.82;;;2.53;;
52268;SDS011;38224;50.950;4.100;2023-05-29T06:51:13;8.43;;;2.40;;
52268;SDS011;38224;50.950;4.100;2023-05-29T06:53:38;9.90;;;2.33;;
52268;SDS011;38224;50.950;4.100;2023-05-29T06:56:04;12.38;;;2.50;;
52268;SDS011;38224;50.950;4.100;2023-05-29T06:58:30;15.43;;;3.17;;
52268;SDS011;38224;50.950;4.100;2023-05-29T07:00:56;8.90;;;2.50;;
52268;SDS011;38224;50.950;4.100;2023-05-29T07:03:21;14.77;;;3.45;;
52268;SDS011;38224;50.950;4.100;2023-05-29T07:05:46;11.13;;;2.63;;
52268;SDS011;38224;50.950;4.100;2023-05-29T07:08:12;12.23;;;2.80;;
52268;SDS011;38224;50.950;4.100;2023-05-29T07:10:37;13.20;;;2.93;;
52268;SDS011;38224;50.950;4.100;2023-05-29T07:13:02;7.13;;;2.40;;
52268;SDS011;38224;50.950;4.100;2023-05-29T07:15:27;12.07;;;2.43;;
52268;SDS011;38224;50.950;4.100;2023-05-29T07:17:53;10.98;;;2.92;;
52268;SDS011;38224;50.950;4.100;2023-05-29T07:20:18;9.80;;;2.83;;
52268;SDS011;38224;50.950;4.100;2023-05-29T07:22:45;8.98;;;2.22;;
52268;SDS011;38224;50.950;4.100;2023-05-29T07:25:10;14.60;;;2.50;;
52268;SDS011;38224;50.950;4.100;2023-05-29T07:27:35;16.30;;;2.97;;
52268;SDS011;38224;50.950;4.100;2023-05-29T07:30:01;9.77;;;2.33;;
52268;SDS011;38224;50.950;4.100;2023-05-29T07:32:26;8.20;;;2.53;;
52268;SDS011;38224;50.950;4.100;2023-05-29T07:34:51;14.47;;;2.53;;
52268;SDS011;38224;50.950;4.100;2023-05-29T07:37:16;12.67;;;2.80;;
52268;SDS011;38224;50.950;4.100;2023-05-29T07:39:44;11.70;;;2.65;;
52268;SDS011;38224;50.950;4.100;2023-05-29T07:42:09;7.82;;;1.85;;
52268;SDS011;38224;50.950;4.100;2023-05-29T07:44:35;10.82;;;2.75;;
52268;SDS011;38224;50.950;4.100;2023-05-29T07:47:00;13.18;;;3.13;;
52268;SDS011;38224;50.950;4.100;2023-05-29T07:49:25;11.75;;;2.42;;
52268;SDS011;38224;50.950;4.100;2023-05-29T07:51:51;9.50;;;2.95;;
52268;SDS011;38224;50.950;4.100;2023-05-29T07:54:16;17.73;;;2.53;;
52268;SDS011;38224;50.950;4.100;2023-05-29T07:56:45;9.48;;;2.58;;
52268;SDS011;38224;50.950;4.100;2023-05-29T07:59:11;17.20;;;3.75;;
52268;SDS011;38224;50.950;4.100;2023-05-29T08:01:36;13.60;;;2.43;;
52268;SDS011;38224;50.950;4.100;2023-05-29T08:04:02;12.80;;;2.90;;
52268;SDS011;38224;50.950;4.100;2023-05-29T08:06:27;13.55;;;3.47;;
52268;SDS011;38224;50.950;4.100;2023-05-29T08:08:53;11.63;;;3.08;;
52268;SDS011;38224;50.950;4.100;2023-05-29T08:11:18;12.00;;;2.63;;
52268;SDS011;38224;50.950;4.100;2023-05-29T08:13:43;11.90;;;2.53;;
52268;SDS011;38224;50.950;4.100;2023-05-29T08:16:09;13.95;;;2.72;;
52268;SDS011;38224;50.950;4.100;2023-05-29T08:18:34;8.90;;;2.55;;
52268;SDS011;38224;50.950;4.100;2023-05-29T08:21:00;7.88;;;2.08;;
52268;SDS011;38224;50.950;4.100;2023-05-29T08:23:25;14.07;;;2.78;;
52268;SDS011;38224;50.950;4.100;2023-05-29T08:25:51;10.38;;;2.45;;
52268;SDS011;38224;50.950;4.100;2023-05-29T08:28:16;10.60;;;2.75;;
52268;SDS011;38224;50.950;4.100;2023-05-29T08:30:41;8.63;;;2.77;;
52268;SDS011;38224;50.950;4.100;2023-05-29T08:33:07;13.93;;;2.77;;
52268;SDS011;38224;50.950;4.100;2023-05-29T08:35:32;11.38;;;3.10;;
52268;SDS011;38224;50.950;4.100;2023-05-29T08:37:58;13.77;;;2.90;;
52268;SDS011;38224;50.950;4.100;2023-05-29T08:40:23;10.35;;;2.63;;
52268;SDS011;38224;50.950;4.100;2023-05-29T08:43:34;11.43;;;2.58;;
52268;SDS011;38224;50.950;4.100;2023-05-29T08:45:34;8.65;;;2.30;;
52268;SDS011;38224;50.950;4.100;2023-05-29T08:48:02;10.73;;;2.65;;
52268;SDS011;38224;50.950;4.100;2023-05-29T08:50:28;13.73;;;2.90;;
52268;SDS011;38224;50.950;4.100;2023-05-29T08:52:54;18.17;;;3.30;;
52268;SDS011;38224;50.950;4.100;2023-05-29T08:55:21;11.25;;;3.13;;
52268;SDS011;38224;50.950;4.100;2023-05-29T08:57:46;8.57;;;2.50;;
52268;SDS011;38224;50.950;4.100;2023-05-29T09:00:12;9.40;;;2.63;;
52268;SDS011;38224;50.950;4.100;2023-05-29T09:02:41;8.63;;;2.35;;
52268;SDS011;38224;50.950;4.100;2023-05-29T09:05:06;9.73;;;3.00;;
52268;SDS011;38224;50.950;4.100;2023-05-29T09:07:32;9.02;;;2.50;;
52268;SDS011;38224;50.950;4.100;2023-05-29T09:09:59;14.68;;;2.58;;
52268;SDS011;38224;50.950;4.100;2023-05-29T09:12:25;8.63;;;2.50;;
52268;SDS011;38224;50.950;4.100;2023-05-29T09:14:50;9.30;;;2.80;;
52268;SDS011;38224;50.950;4.100;2023-05-29T09:17:16;10.07;;;2.60;;
52268;SDS011;38224;50.950;4.100;2023-05-29T09:19:41;11.07;;;3.03;;
52268;SDS011;38224;50.950;4.100;2023-05-29T09:22:13;11.98;;;2.90;;
52268;SDS011;38224;50.950;4.100;2023-05-29T09:27:05;9.68;;;2.63;;
52268;SDS011;38224;50.950;4.100;2023-05-29T09:29:39;8.48;;;2.30;;
52268;SDS011;38224;50.950;4.100;2023-05-29T09:32:09;12.60;;;2.85;;
52268;SDS011;38224;50.950;4.100;2023-05-29T09:34:35;8.30;;;2.53;;
52268;SDS011;38224;50.950;4.100;2023-05-29T09:37:04;11.55;;;2.88;;
52268;SDS011;38224;50.950;4.100;2023-05-29T09:39:34;13.68;;;2.90;;
52268;SDS011;38224;50.950;4.100;2023-05-29T09:41:59;12.63;;;3.05;;
52268;SDS011;38224;50.950;4.100;2023-05-29T09:44:24;10.50;;;2.60;;
52268;SDS011;38224;50.950;4.100;2023-05-29T09:46:56;10.95;;;2.60;;
52268;SDS011;38224;50.950;4.100;2023-05-29T09:49:22;7.78;;;2.22;;
52268;SDS011;38224;50.950;4.100;2023-05-29T09:51:47;7.53;;;2.17;;
52268;SDS011;38224;50.950;4.100;2023-05-29T09:54:16;11.45;;;3.22;;
52268;SDS011;38224;50.950;4.100;2023-05-29T09:56:42;12.38;;;3.08;;
52268;SDS011;38224;50.950;4.100;2023-05-29T09:59:10;9.70;;;2.70;;
52268;SDS011;38224;50.950;4.100;2023-05-29T10:01:35;9.30;;;2.50;;
52268;SDS011;38224;50.950;4.100;2023-05-29T10:04:01;10.30;;;3.75;;
52268;SDS011;38224;50.950;4.100;2023-05-29T10:06:27;11.32;;;2.88;;
52268;SDS011;38224;50.950;4.100;2023-05-29T10:08:54;12.70;;;2.97;;
52268;SDS011;38224;50.950;4.100;2023-05-29T10:11:21;10.93;;;2.92;;
52268;SDS011;38224;50.950;4.100;2023-05-29T10:13:50;10.23;;;2.30;;
52268;SDS011;38224;50.950;4.100;2023-05-29T10:16:16;10.00;;;3.03;;
52268;SDS011;38224;50.950;4.100;2023-05-29T10:18:44;9.65;;;2.85;;
52268;SDS011;38224;50.950;4.100;2023-05-29T10:21:14;12.52;;;2.70;;
52268;SDS011;38224;50.950;4.100;2023-05-29T10:23:40;11.75;;;3.20;;
52268;SDS011;38224;50.950;4.100;2023-05-29T10:26:21;9.73;;;2.80;;
52268;SDS011;38224;50.950;4.100;2023-05-29T10:28:53;9.80;;;2.72;;
52268;SDS011;38224;50.950;4.100;2023-05-29T10:31:22;12.52;;;2.50;;
52268;SDS011;38224;50.950;4.100;2023-05-29T10:36:21;13.98;;;2.40;;
52268;SDS011;38224;50.950;4.100;2023-05-29T10:38:49;9.45;;;3.00;;
52268;SDS011;38224;50.950;4.100;2023-05-29T10:41:33;10.40;;;2.53;;
52268;SDS011;38224;50.950;4.100;2023-05-29T10:44:03;8.30;;;2.67;;
52268;SDS011;38224;50.950;4.100;2023-05-29T10:49:18;8.50;;;2.28;;
52268;SDS011;38224;50.950;4.100;2023-05-29T10:51:43;14.45;;;2.60;;
52268;SDS011;38224;50.950;4.100;2023-05-29T10:54:09;7.43;;;2.30;;
52268;SDS011;38224;50.950;4.100;2023-05-29T10:56:34;8.70;;;2.50;;
52268;SDS011;38224;50.950;4.100;2023-05-29T10:59:00;9.48;;;2.70;;
52268;SDS011;38224;50.950;4.100;2023-05-29T11:01:29;11.27;;;3.08;;
52268;SDS011;38224;50.950;4.100;2023-05-29T11:04:28;10.40;;;3.45;;
52268;SDS011;38224;50.950;4.100;2023-05-29T11:06:46;10.63;;;2.75;;
52268;SDS011;38224;50.950;4.100;2023-05-29T11:14:46;8.10;;;2.42;;
52268;SDS011;38224;50.950;4.100;2023-05-29T11:20:28;10.82;;;2.53;;
52268;SDS011;38224;50.950;4.100;2023-05-29T11:23:03;8.88;;;2.70;;
52268;SDS011;38224;50.950;4.100;2023-05-29T11:25:33;8.05;;;2.28;;
52268;SDS011;38224;50.950;4.100;2023-05-29T11:27:59;10.75;;;2.70;;
52268;SDS011;38224;50.950;4.100;2023-05-29T11:30:25;9.88;;;2.47;;
52268;SDS011;38224;50.950;4.100;2023-05-29T11:32:50;10.75;;;2.95;;
52268;SDS011;38224;50.950;4.100;2023-05-29T11:35:17;15.52;;;2.35;;
52268;SDS011;38224;50.950;4.100;2023-05-29T11:37:44;9.32;;;2.30;;
52268;SDS011;38224;50.950;4.100;2023-05-29T11:40:11;10.60;;;3.20;;
52268;SDS011;38224;50.950;4.100;2023-05-29T11:42:41;8.95;;;2.58;;
52268;SDS011;38224;50.950;4.100;2023-05-29T11:45:12;14.63;;;2.65;;
52268;SDS011;38224;50.950;4.100;2023-05-29T11:47:50;10.00;;;2.47;;
52268;SDS011;38224;50.950;4.100;2023-05-29T11:50:19;11.45;;;2.70;;
52268;SDS011;38224;50.950;4.100;2023-05-29T11:52:45;8.50;;;2.33;;
52268;SDS011;38224;50.950;4.100;2023-05-29T11:55:11;9.10;;;2.50;;
52268;SDS011;38224;50.950;4.100;2023-05-29T11:57:36;8.18;;;2.25;;
52268;SDS011;38224;50.950;4.100;2023-05-29T12:00:02;8.32;;;2.30;;
52268;SDS011;38224;50.950;4.100;2023-05-29T12:02:30;4.65;;;2.20;;
52268;SDS011;38224;50.950;4.100;2023-05-29T12:04:59;10.18;;;2.33;;
52268;SDS011;38224;50.950;4.100;2023-05-29T12:07:24;10.25;;;2.83;;
52268;SDS011;38224;50.950;4.100;2023-05-29T12:09:50;8.43;;;2.03;;
52268;SDS011;38224;50.950;4.100;2023-05-29T12:12:18;7.47;;;2.38;;
52268;SDS011;38224;50.950;4.100;2023-05-29T12:14:43;13.35;;;2.92;;
52268;SDS011;38224;50.950;4.100;2023-05-29T12:17:08;7.87;;;2.50;;
52268;SDS011;38224;50.950;4.100;2023-05-29T12:19:33;7.70;;;2.17;;
52268;SDS011;38224;50.950;4.100;2023-05-29T12:21:59;10.43;;;3.00;;
52268;SDS011;38224;50.950;4.100;2023-05-29T12:24:24;11.70;;;3.63;;
52268;SDS011;38224;50.950;4.100;2023-05-29T12:26:50;7.83;;;2.40;;
52268;SDS011;38224;50.950;4.100;2023-05-29T12:29:16;10.18;;;3.03;;
52268;SDS011;38224;50.950;4.100;2023-05-29T12:31:41;10.70;;;2.63;;
52268;SDS011;38224;50.950;4.100;2023-05-29T12:34:10;6.63;;;2.60;;
52268;SDS011;38224;50.950;4.100;2023-05-29T12:36:39;11.05;;;2.50;;
52268;SDS011;38224;50.950;4.100;2023-05-29T12:39:06;8.95;;;2.50;;
52268;SDS011;38224;50.950;4.100;2023-05-29T12:41:33;8.02;;;2.67;;
52268;SDS011;38224;50.950;4.100;2023-05-29T12:44:01;9.70;;;2.90;;
52268;SDS011;38224;50.950;4.100;2023-05-29T12:46:26;8.02;;;2.72;;
52268;SDS011;38224;50.950;4.100;2023-05-29T12:48:55;11.95;;;3.00;;
52268;SDS011;38224;50.950;4.100;2023-05-29T12:51:24;9.50;;;3.78;;
52268;SDS011;38224;50.950;4.100;2023-05-29T12:53:49;12.20;;;2.72;;
52268;SDS011;38224;50.950;4.100;2023-05-29T12:56:15;7.85;;;2.63;;
52268;SDS011;38224;50.950;4.100;2023-05-29T12:58:40;12.97;;;2.60;;
52268;SDS011;38224;50.950;4.100;2023-05-29T13:01:05;14.37;;;2.83;;
52268;SDS011;38224;50.950;4.100;2023-05-29T13:03:36;8.90;;;2.45;;
52268;SDS011;38224;50.950;4.100;2023-05-29T13:06:02;13.93;;;2.83;;
52268;SDS011;38224;50.950;4.100;2023-05-29T13:08:27;9.57;;;2.80;;
52268;SDS011;38224;50.950;4.100;2023-05-29T13:10:52;16.17;;;3.08;;
52268;SDS011;38224;50.950;4.100;2023-05-29T13:13:18;16.03;;;3.10;;
52268;SDS011;38224;50.950;4.100;2023-05-29T13:15:43;8.90;;;2.70;;
52268;SDS011;38224;50.950;4.100;2023-05-29T13:18:08;9.95;;;2.80;;
52268;SDS011;38224;50.950;4.100;2023-05-29T13:20:34;11.50;;;3.37;;
52268;SDS011;38224;50.950;4.100;2023-05-29T13:22:59;12.93;;;3.72;;
52268;SDS011;38224;50.950;4.100;2023-05-29T13:25:25;9.73;;;2.20;;
52268;SDS011;38224;50.950;4.100;2023-05-29T13:27:51;13.45;;;3.63;;
52268;SDS011;38224;50.950;4.100;2023-05-29T13:30:16;10.70;;;2.75;;
52268;SDS011;38224;50.950;4.100;2023-05-29T13:32:41;13.40;;;3.30;;
52268;SDS011;38224;50.950;4.100;2023-05-29T13:35:07;8.02;;;2.90;;
52268;SDS011;38224;50.950;4.100;2023-05-29T13:37:33;10.95;;;2.80;;
52268;SDS011;38224;50.950;4.100;2023-05-29T13:39:59;10.18;;;2.95;;
52268;SDS011;38224;50.950;4.100;2023-05-29T13:42:24;5.95;;;2.40;;
52268;SDS011;38224;50.950;4.100;2023-05-29T13:44:50;11.55;;;3.10;;
52268;SDS011;38224;50.950;4.100;2023-05-29T13:47:15;10.98;;;2.72;;
52268;SDS011;38224;50.950;4.100;2023-05-29T13:49:41;12.48;;;2.80;;
52268;SDS011;38224;50.950;4.100;2023-05-29T13:52:07;8.07;;;2.70;;
52268;SDS011;38224;50.950;4.100;2023-05-29T13:54:32;11.38;;;3.30;;
52268;SDS011;38224;50.950;4.100;2023-05-29T13:57:04;12.30;;;2.72;;
52268;SDS011;38224;50.950;4.100;2023-05-29T13:59:31;12.07;;;3.10;;
52268;SDS011;38224;50.950;4.100;2023-05-29T14:01:56;11.70;;;3.08;;
52268;SDS011;38224;50.950;4.100;2023-05-29T14:04:22;13.50;;;3.08;;
52268;SDS011;38224;50.950;4.100;2023-05-29T14:06:47;10.52;;;2.83;;
52268;SDS011;38224;50.950;4.100;2023-05-29T14:09:12;9.33;;;2.80;;
52268;SDS011;38224;50.950;4.100;2023-05-29T14:11:38;13.48;;;2.97;;
52268;SDS011;38224;50.950;4.100;2023-05-29T14:14:03;7.80;;;2.65;;
52268;SDS011;38224;50.950;4.100;2023-05-29T14:16:29;14.00;;;2.50;;
52268;SDS011;38224;50.950;4.100;2023-05-29T14:18:54;14.43;;;3.03;;
52268;SDS011;38224;50.950;4.100;2023-05-29T14:21:19;8.70;;;2.60;;
52268;SDS011;38224;50.950;4.100;2023-05-29T14:23:46;13.02;;;3.20;;
52268;SDS011;38224;50.950;4.100;2023-05-29T14:26:11;13.27;;;3.25;;
52268;SDS011;38224;50.950;4.100;2023-05-29T14:28:36;10.25;;;2.72;;
52268;SDS011;38224;50.950;4.100;2023-05-29T14:31:02;8.90;;;3.50;;
52268;SDS011;38224;50.950;4.100;2023-05-29T14:33:27;7.63;;;2.50;;
52268;SDS011;38224;50.950;4.100;2023-05-29T14:35:53;11.82;;;3.03;;
52268;SDS011;38224;50.950;4.100;2023-05-29T14:38:19;10.85;;;3.28;;
52268;SDS011;38224;50.950;4.100;2023-05-29T14:40:44;10.33;;;2.47;;
52268;SDS011;38224;50.950;4.100;2023-05-29T14:43:09;5.93;;;2.37;;
52268;SDS011;38224;50.950;4.100;2023-05-29T14:45:35;6.85;;;2.63;;
52268;SDS011;38224;50.950;4.100;2023-05-29T14:48:01;7.82;;;3.00;;
52268;SDS011;38224;50.950;4.100;2023-05-29T14:50:26;10.40;;;3.72;;
52268;SDS011;38224;50.950;4.100;2023-05-29T14:52:52;8.47;;;3.20;;
52268;SDS011;38224;50.950;4.100;2023-05-29T14:55:17;10.70;;;2.63;;
52268;SDS011;38224;50.950;4.100;2023-05-29T14:57:42;6.83;;;2.27;;